EDT,Max TemperatureF,Mean TemperatureF,Min TemperatureF,Max Dew PointF,MeanDew PointF,Min DewpointF,Max Humidity, Mean Humidity, Min Humidity, Max Sea Level PressureIn, Mean Sea Level PressureIn, Min Sea Level PressureIn, Max VisibilityMiles, Mean VisibilityMiles, Min VisibilityMiles, Max Wind SpeedMPH, Mean Wind SpeedMPH, Max Gust SpeedMPH,PrecipitationIn, CloudCover, Events, WindDirDegrees
2013-4-1,71,61,51,56,53,47,90,78,45,29.93,29.88,29.83,10,9,2,13,6,,0.04,4,Rain,260
2013-4-2,62,54,46,47,32,24,89,48,26,30.16,30.09,29.96,10,10,8,13,7,21,0.00,1,,353
2013-4-3,57,52,46,40,32,25,74,52,29,30.32,30.25,30.17,10,10,7,12,7,,0.00,6,Rain,48
2013-4-4,55,50,45,54,43,31,94,79,57,30.33,30.08,29.78,10,6,1,18,10,24,0.86,7,Rain,52
2013-4-5,57,50,42,50,44,39,94,81,58,30.04,29.90,29.77,10,7,2,20,10,24,0.00,6,Rain,329
2013-4-6,64,52,39,40,35,28,89,60,26,30.32,30.20,30.05,10,9,5,14,5,20,0.00,0,,64
2013-4-7,70,54,39,50,44,35,89,68,44,30.30,30.25,30.19,10,10,7,16,5,21,0.00,0,,137
2013-4-8,77,62,50,57,53,47,89,70,45,30.23,30.18,30.13,10,9,2,18,5,25,0.00,2,Fog,193
2013-4-9,82,68,55,60,57,52,94,72,47,30.24,30.18,30.13,10,9,2,15,5,21,0.00,1,Fog,207
2013-4-10,82,71,60,60,57,54,93,66,41,30.17,30.10,30.03,10,10,5,15,7,23,0.00,0,,214
2013-4-11,82,72,63,66,62,57,87,75,52,30.05,29.98,29.90,10,10,10,17,9,31,0.00,2,,212
2013-4-12,82,73,66,68,65,62,94,82,64,29.91,29.82,29.71,10,6,1,17,11,26,0.75,6,Rain-Thunderstorm,190
2013-4-13,69,60,52,64,51,42,90,69,48,30.05,29.94,29.78,10,10,6,14,8,20,0.00,1,,97
2013-4-14,75,60,46,55,47,43,93,70,34,30.13,30.10,30.05,10,7,0,12,2,,0.00,1,Fog,147
2013-4-15,69,66,62,59,56,54,84,73,63,30.22,30.10,30.04,10,9,6,15,8,23,0.14,7,Rain,94
2013-4-16,75,67,59,61,58,55,94,81,54,30.29,30.24,30.20,10,6,0,10,4,,0.00,6,Fog,51
2013-4-17,80,66,53,60,56,50,90,72,48,30.26,30.22,30.16,10,9,5,10,2,,0.00,0,,146
2013-4-18,78,67,57,64,58,54,94,75,50,30.23,30.17,30.11,10,8,1,14,4,21,0.02,3,Rain,143
2013-4-19,80,72,66,68,65,63,94,80,61,30.09,29.96,29.89,10,7,1,23,10,33,0.91,7,Rain-Thunderstorm,194
2013-4-20,66,59,50,64,50,37,94,73,46,30.28,30.05,29.89,10,9,3,18,9,28,0.44,5,Rain-Thunderstorm,315
2013-4-21,64,54,44,42,39,35,89,59,37,30.47,30.39,30.29,10,10,9,21,10,29,0.00,0,,39
2013-4-22,75,51,42,50,44,35,96,77,60,30.43,30.29,30.20,10,9,2,21,13,36,0.00,7,Rain,4
2013-4-23,66,58,50,52,50,48,97,82,54,30.22,30.17,30.14,10,8,4,17,11,22,0.00,5,,3
2013-4-24,73,59,46,60,52,46,100,88,59,30.22,30.15,30.07,10,6,0,17,3,22,0.01,3,Fog,193
2013-4-25,73,63,54,60,56,47,90,74,59,30.30,30.18,30.08,10,10,8,12,8,,0.00,5,Rain,72
2013-4-26,72,58,45,47,42,38,90,58,30,30.42,30.36,30.29,10,10,9,14,6,,0.00,0,,77
2013-4-27,73,62,52,53,47,41,89,62,34,30.40,30.36,30.31,10,10,8,14,6,,0.00,1,,82
2013-4-28,73,64,54,57,46,42,75,54,33,30.30,30.23,30.14,10,10,5,12,7,,0.00,4,,105
2013-4-29,70,65,62,64,61,54,97,89,65,30.14,30.07,29.99,10,6,1,14,7,,1.39,7,Rain,139
2013-4-30,75,66,60,65,62,58,100,91,66,30.14,30.05,30.00,10,5,0,10,4,,0.53,6,Fog-Rain,4